Kezdőlap
METAR-TAF:

METAR-TAF

Repülőterek :

Chōfu, Japán

földrajzi szélesség: 35-40N, földrajzi hosszúság: 139-32E, magasság: 41 m

Jelenlegi meteorológiai megfigyelések

A jelentés 15 perccel ezelõtt készült, 01:00 UTC
Különbözõ irányokból fújó szél 2 kt
Hőmérséklet 32°C
Páratartalom 63%
Légköri nyomás 1011 hPa
Látótávolság 10 km, vagy több
Kevés felhő 1500 lábon
Szórványos felhőzet 2500 lábon
Szakadozott felhőzet

METAR: RJTF 210100Z VRB02KT 9999 FEW015 SCT025 BKN/// 32/24 Q1011

Idő: 10:15 (01:15 UTC)


TAF: hiányzik

Meteorológiai megfigyelések és előrejelzések több, mint 4000 repülőtéren (METAR és TAF jelentéseket).

A térképen piros és sárga pontok jelzik az elérhető meteorológiai állomásokat.

Mozgassa az egeret a pont fölött, hogy megjelenjen az állomás neve.

Azután kattintson az időjárási megfigyelések és előrejelzések megtekintéséhez.

A térkép megváltoztatása: kattintson a fekete keresztel jelölt zöld gombra ráközelítéshez, a vonallal jelölt zöld gombra távolításhoz, vagy a zöld nyilakra a szomszédos térképek eléréséhez.


METAR-TAF: